Time;durP1;ratioP1;P1;durP2;ratioP2;P2;SDS_P1;SDS_P2;PMS_P1;PMS_P2;Temp;Humidity;BMP_temperature;BMP_pressure;BME280_temperature;BME280_humidity;BME280_pressure;Samples;Min_cycle;Max_cycle;Signal;HPM_P1;HPM_P2
2021/09/29 15:59:57;;;;;;;0.35;0.10;;;;;;;;;;13012825;22;1245846;-75
2021/09/29 16:05:09;;;;;;;;;;;;;;;;;;12976291;22;20035;-74
2021/09/29 16:10:32;;;;;;;0.00;0.00;;;;;;;;;;12977396;22;19919;-74
2021/09/29 16:21:24;;;;;;;0.10;0.10;;;;;;;;;;12977093;22;20042;-75
2021/09/29 16:31:57;;;;;;;0.10;0.10;;;;;;;;;;12979771;22;20023;-75
2021/09/29 16:37:00;;;;;;;0.08;0.08;;;;;;;;;;12979018;22;20043;-75
2021/09/29 16:42:04;;;;;;;0.10;0.10;;;;;;;;;;12978579;22;20445;-75
2021/09/29 16:47:08;;;;;;;0.00;0.00;;;;;;;;;;12980144;22;20023;-75
2021/09/29 16:52:14;;;;;;;0.25;0.10;;;;;;;;;;12981392;22;20331;-76
2021/09/29 16:57:23;;;;;;;0.00;0.00;;;;;;;;;;12982416;22;20426;-77
2021/09/29 17:02:27;;;;;;;0.10;0.10;;;;;;;;;;12982585;22;20028;-78
2021/09/29 17:07:30;;;;;;;0.00;0.00;;;;;;;;;;12984317;22;20422;-76
2021/09/29 17:12:35;;;;;;;0.00;0.00;;;;;;;;;;12976267;22;20034;-76
2021/09/29 17:17:41;;;;;;;0.00;0.00;;;;;;;;;;12976249;22;20019;-75
2021/09/29 17:22:45;;;;;;;0.00;0.00;;;;;;;;;;12975529;22;20019;-75
2021/09/29 17:27:51;;;;;;;0.00;0.00;;;;;;;;;;12986251;22;20022;-76
2021/09/29 17:33:28;;;;;;;0.00;0.00;;;;;;;;;;12989216;22;20489;-77
2021/09/29 17:54:55;;;;;;;0.05;0.05;;;;;;;;;;12977509;22;20019;-81
2021/09/29 17:59:58;;;;;;;0.10;0.10;;;;;;;;;;12976037;22;20031;-77
2021/09/29 18:05:11;;;;;;;0.00;0.00;;;;;;;;;;12977534;22;20041;-78
2021/09/29 18:10:17;;;;;;;0.00;0.00;;;;;;;;;;12977022;22;20015;-82
2021/09/29 18:15:23;;;;;;;0.10;0.10;;;;;;;;;;12972901;22;20024;-82
2021/09/29 18:20:27;;;;;;;0.00;0.00;;;;;;;;;;12976377;22;20346;-77
2021/09/29 18:25:35;;;;;;;0.00;0.00;;;;;;;;;;12974270;22;20022;-81
2021/09/29 18:30:40;;;;;;;0.00;0.00;;;;;;;;;;12974002;22;20784;-80
2021/09/29 18:35:49;;;;;;;0.00;0.00;;;;;;;;;;12976239;22;20043;-83
2021/09/29 18:40:52;;;;;;;0.00;0.00;;;;;;;;;;12976565;22;20026;-84
2021/09/29 18:45:54;;;;;;;0.10;0.10;;;;;;;;;;12976861;22;20041;-84
2021/09/29 18:50:59;;;;;;;0.00;0.00;;;;;;;;;;12985534;22;20012;-76
2021/09/29 18:56:12;;;;;;;0.10;0.10;;;;;;;;;;12988292;22;20011;-76
2021/09/29 19:12:04;;;;;;;0.00;0.00;;;;;;;;;;12981026;22;20050;-76
2021/09/29 19:17:18;;;;;;;0.00;0.00;;;;;;;;;;12983493;22;20019;-75
2021/09/29 19:22:24;;;;;;;0.00;0.00;;;;;;;;;;12983670;22;20024;-75
2021/09/29 19:27:26;;;;;;;0.10;0.10;;;;;;;;;;12980938;22;20023;-75
2021/09/29 19:32:33;;;;;;;0.10;0.10;;;;;;;;;;12982958;22;20020;-75
2021/09/29 19:37:38;;;;;;;0.00;0.00;;;;;;;;;;12983337;22;20027;-76
2021/09/29 19:42:42;;;;;;;0.10;0.10;;;;;;;;;;12984237;22;20103;-76
2021/09/29 19:47:56;;;;;;;0.00;0.00;;;;;;;;;;13019189;22;20007;-76
2021/09/29 20:09:30;;;;;;;0.30;0.10;;;;;;;;;;12987776;22;20039;-76
2021/09/29 20:14:34;;;;;;;0.10;0.10;;;;;;;;;;12922641;22;20099;-77
2021/09/29 20:19:44;;;;;;;0.10;0.10;;;;;;;;;;12887985;23;20346;-77
2021/09/29 20:24:48;;;;;;;0.10;0.10;;;;;;;;;;12922553;23;20039;-76
2021/09/29 20:29:55;;;;;;;0.05;0.05;;;;;;;;;;12920741;23;20052;-77
2021/09/29 20:35:17;;;;;;;0.10;0.10;;;;;;;;;;12923646;23;20508;-77
2021/09/29 20:45:43;;;;;;;0.10;0.10;;;;;;;;;;12923368;23;20016;-77
2021/09/29 20:50:52;;;;;;;0.10;0.10;;;;;;;;;;12923694;23;20066;-75
2021/09/29 20:55:57;;;;;;;0.10;0.10;;;;;;;;;;12921981;23;20016;-77
2021/09/29 21:01:01;;;;;;;0.10;0.10;;;;;;;;;;12923083;23;20016;-76
2021/09/29 21:06:06;;;;;;;0.10;0.10;;;;;;;;;;12922730;23;20024;-76
2021/09/29 21:11:16;;;;;;;0.10;0.10;;;;;;;;;;12922002;23;20019;-76
2021/09/29 21:21:44;;;;;;;0.10;0.10;;;;;;;;;;12895756;23;20016;-76
2021/09/29 21:26:47;;;;;;;0.10;0.10;;;;;;;;;;12888136;23;20083;-77
2021/09/29 21:31:52;;;;;;;0.10;0.10;;;;;;;;;;12859108;23;20395;-77
2021/09/29 21:36:55;;;;;;;0.10;0.10;;;;;;;;;;12859306;23;20091;-77
2021/09/29 21:42:06;;;;;;;0.10;0.10;;;;;;;;;;12856821;23;20021;-78
2021/09/29 22:03:41;;;;;;;0.10;0.10;;;;;;;;;;12980822;22;20031;-77
2021/09/29 22:20:55;;;;;;;;;;;;;;;;;;12969590;22;20043;-76
2021/09/29 22:42:24;;;;;;;0.10;0.10;;;;;;;;;;12925122;22;20079;-76
2021/09/29 23:09:05;;;;;;;0.10;0.10;;;;;;;;;;12974628;22;20026;-77
2021/09/29 23:14:28;;;;;;;0.10;0.10;;;;;;;;;;12974432;22;20019;-77
2021/09/29 23:35:47;;;;;;;0.10;0.10;;;;;;;;;;12969131;22;20012;-78
2021/09/29 23:40:59;;;;;;;0.10;0.10;;;;;;;;;;12997917;22;20421;-76
2021/09/29 23:46:04;;;;;;;0.10;0.10;;;;;;;;;;12999070;22;20030;-77
2021/09/29 23:51:06;;;;;;;0.17;0.17;;;;;;;;;;12975616;22;20115;-77
2021/09/29 23:56:10;;;;;;;0.10;0.10;;;;;;;;;;12949009;22;20107;-77
